Overview Statistics Trail Chart Weather Telemetry Raw packets
 

This is the latest recevied weather packets stored in our database for station/object DL5DI-H. If no packets are shown the sender has not sent any weather packets the latest 10 day(s).

<< 33 34 35 36 37 38 39 >>
Time Temp. Humidity Pressure Rain* Wind** Luminosity Snow
1788189601 23.33° C 58% 1014.3 hPa 0 mm - - -
1788189002 23.33° C 62% 1014 hPa 0 mm - - -
1788188401 23.89° C 61% 1014 hPa 0 mm - - -
1788187800 24.44° C 59% 1013.9 hPa 0 mm - - -
1788187202 23.89° C 59% 1013.8 hPa 0.25 mm - - -
1788186602 23.89° C 59% 1013.8 hPa 0.25 mm - - -
1788186002 23.33° C 62% 1013.9 hPa 0.25 mm - - -
1788185401 23.33° C 67% 1013.8 hPa 0.25 mm - - -
1788184802 23.33° C 68% 1013.8 hPa 0.25 mm - - -
1788184201 23.89° C 62% 1013.9 hPa 0.25 mm - - -
1788183602 25° C 55% 1013.4 hPa 0 mm - - -
1788183002 24.44° C 56% 1013.5 hPa 0 mm - - -
1788182402 24.44° C 57% 1013.4 hPa 0 mm - - -
1788181802 23.89° C 56% 1013.5 hPa 0 mm - - -
1788181202 23.89° C 56% 1013.4 hPa 0 mm - - -
1788180602 23.33° C 58% 1013.5 hPa 0 mm - - -
1788180002 23.33° C 60% 1013.6 hPa 0 mm - - -
1788179403 22.78° C 60% 1013.7 hPa 0 mm - - -
1788178801 22.78° C 63% 1013.9 hPa 0 mm - - -
1788178202 22.78° C 62% 1013.9 hPa 0 mm - - -
1788177601 22.22° C 61% 1014 hPa 0 mm - - -
1788177002 22.22° C 61% 1014 hPa 0 mm - - -
1788176401 22.22° C 64% 1014 hPa 0 mm - - -
1788175801 22.22° C 63% 1014.2 hPa 0 mm - - -
1788175201 22.22° C 63% 1014.2 hPa 0 mm - - -

* Rain latest hour (hover to see other rain measurements)
** Current wind speed in m/s (hover to see current wind gust speed)